Time;durP1;ratioP1;P1;durP2;ratioP2;P2;SDS_P1;SDS_P2;PMS_P1;PMS_P2;Temp;Humidity;BMP_temperature;BMP_pressure;BME280_temperature;BME280_humidity;BME280_pressure;Samples;Min_cycle;Max_cycle;Signal;HPM_P1;HPM_P2
2021/05/16 00:01:08;;;;;;;4.40;1.77;;;11.00;99.90;;;;;;5096159;28;20197;-69
2021/05/16 00:03:34;;;;;;;9.20;1.57;;;11.00;99.90;;;;;;5096382;28;20405;-69
2021/05/16 00:06:00;;;;;;;11.63;1.90;;;11.00;99.90;;;;;;5096096;28;20417;-70
2021/05/16 00:08:26;;;;;;;6.60;2.40;;;10.90;99.90;;;;;;5094610;28;20941;-69
2021/05/16 00:10:51;;;;;;;9.17;1.57;;;10.80;99.90;;;;;;5096021;28;20182;-69
2021/05/16 00:13:17;;;;;;;1.87;1.00;;;10.90;99.90;;;;;;5095882;28;20192;-69
2021/05/16 00:15:43;;;;;;;6.60;1.87;;;10.90;99.90;;;;;;5095859;28;20934;-70
2021/05/16 00:18:08;;;;;;;8.10;1.73;;;10.90;99.90;;;;;;5095854;28;20217;-69
2021/05/16 00:20:34;;;;;;;5.43;1.70;;;10.80;99.90;;;;;;5095197;28;20167;-69
2021/05/16 00:23:01;;;;;;;5.57;1.43;;;11.00;95.00;;;;;;5095735;28;20168;-69
2021/05/16 00:25:27;;;;;;;6.70;1.40;;;10.90;85.70;;;;;;5095713;28;20424;-69
2021/05/16 00:27:53;;;;;;;7.80;1.60;;;10.80;99.90;;;;;;5095692;28;20563;-70
2021/05/16 00:30:21;;;;;;;8.40;1.93;;;10.80;95.20;;;;;;5095623;28;20890;-69
2021/05/16 00:32:47;;;;;;;7.17;1.60;;;10.80;97.00;;;;;;5095512;28;20452;-68
2021/05/16 00:35:16;;;;;;;11.27;1.67;;;10.60;99.90;;;;;;5094208;28;20430;-70
2021/05/16 00:37:42;;;;;;;4.27;2.17;;;10.70;99.90;;;;;;5096052;28;20859;-69
2021/05/16 00:40:09;;;;;;;4.70;1.77;;;10.70;99.90;;;;;;5095667;28;20455;-69
2021/05/16 00:42:35;;;;;;;12.47;1.47;;;10.70;68.30;;;;;;5095631;28;20414;-70
2021/05/16 00:45:06;;;;;;;7.07;1.27;;;10.60;93.00;;;;;;5095314;28;20417;-70
2021/05/16 00:47:33;;;;;;;7.30;2.10;;;10.70;95.90;;;;;;5095293;28;21004;-69
2021/05/16 00:49:59;;;;;;;3.57;1.50;;;10.60;77.80;;;;;;5095206;28;20391;-69
2021/05/16 00:52:25;;;;;;;15.30;2.33;;;10.60;90.20;;;;;;5095108;28;20449;-69
2021/05/16 00:54:56;;;;;;;3.40;1.30;;;10.60;99.90;;;;;;5095248;28;20900;-69
2021/05/16 00:57:22;;;;;;;5.70;2.10;;;10.60;79.50;;;;;;5095159;28;20484;-70
2021/05/16 00:59:47;;;;;;;6.97;1.37;;;10.50;95.40;;;;;;5095058;28;20397;-69
2021/05/16 01:02:13;;;;;;;7.37;2.00;;;10.50;80.10;;;;;;5095614;28;20402;-69
2021/05/16 01:04:40;;;;;;;4.50;2.10;;;10.50;76.00;;;;;;5095009;28;20195;-69
2021/05/16 01:07:06;;;;;;;6.70;1.53;;;10.40;99.90;;;;;;5094822;28;20545;-69
2021/05/16 01:09:32;;;;;;;6.17;2.00;;;10.50;99.90;;;;;;5094964;28;20449;-70
2021/05/16 01:11:59;;;;;;;7.23;1.87;;;10.40;99.90;;;;;;5095023;28;20229;-69
2021/05/16 01:14:44;;;;;;;8.57;1.73;;;10.40;99.90;;;;;;5094692;28;20183;-69
2021/05/16 01:17:10;;;;;;;6.13;2.30;;;10.50;96.90;;;;;;5095053;28;20445;-69
2021/05/16 01:19:36;;;;;;;7.37;1.87;;;10.40;99.30;;;;;;5094633;28;20405;-69
2021/05/16 01:22:03;;;;;;;6.53;1.97;;;10.30;99.90;;;;;;5094582;28;20421;-69
2021/05/16 01:24:29;;;;;;;4.70;2.63;;;10.10;99.90;;;;;;5094651;28;20425;-69
2021/05/16 01:26:57;;;;;;;7.37;1.80;;;10.10;99.90;;;;;;5094726;28;20416;-69
2021/05/16 01:29:23;;;;;;;9.67;1.77;;;10.10;99.90;;;;;;5094511;28;20720;-69
2021/05/16 01:31:48;;;;;;;6.77;1.40;;;10.00;99.90;;;;;;5093432;28;20466;-69
2021/05/16 01:34:15;;;;;;;6.90;1.90;;;9.90;99.90;;;;;;5094323;28;20187;-70
2021/05/16 01:36:40;;;;;;;7.40;1.97;;;9.80;99.90;;;;;;5094465;28;20162;-69
2021/05/16 01:39:10;;;;;;;10.47;1.97;;;9.90;99.90;;;;;;5094330;28;20496;-69
2021/05/16 01:41:35;;;;;;;6.90;2.10;;;9.90;99.90;;;;;;5094243;28;20156;-69
2021/05/16 01:44:02;;;;;;;6.23;1.40;;;9.90;99.90;;;;;;5094435;28;20478;-70
2021/05/16 01:46:27;;;;;;;7.03;1.83;;;9.80;99.90;;;;;;5094322;28;20167;-70
2021/05/16 01:48:54;;;;;;;4.10;1.90;;;9.90;99.90;;;;;;5094175;28;20398;-69
2021/05/16 01:51:20;;;;;;;5.57;1.90;;;9.80;99.90;;;;;;5092823;28;20221;-69
2021/05/16 01:53:48;;;;;;;7.40;2.13;;;9.90;99.90;;;;;;5094176;28;20441;-69
2021/05/16 01:56:21;;;;;;;8.70;2.27;;;9.80;99.90;;;;;;5094039;28;20389;-69
2021/05/16 01:58:47;;;;;;;7.63;1.73;;;9.80;99.90;;;;;;5094227;28;20382;-69
2021/05/16 02:01:13;;;;;;;9.10;2.13;;;9.80;99.90;;;;;;5093894;28;20398;-69
2021/05/16 02:03:40;;;;;;;7.90;1.87;;;9.70;99.90;;;;;;5094005;28;20186;-69
2021/05/16 02:06:07;;;;;;;8.80;1.83;;;9.50;99.90;;;;;;5093809;28;20482;-69
2021/05/16 02:08:33;;;;;;;6.40;2.30;;;9.40;99.90;;;;;;5093620;28;20524;-69
2021/05/16 02:11:00;;;;;;;4.27;1.43;;;9.50;99.90;;;;;;5093710;28;20724;-69
2021/05/16 02:13:26;;;;;;;5.93;1.60;;;9.60;99.90;;;;;;5093802;28;20428;-70
2021/05/16 02:15:51;;;;;;;11.10;2.20;;;9.50;99.90;;;;;;5093627;28;20441;-69
2021/05/16 02:18:18;;;;;;;10.10;2.30;;;9.70;99.90;;;;;;5093899;28;20633;-69
2021/05/16 02:20:44;;;;;;;6.80;1.63;;;9.60;99.90;;;;;;5093959;28;20215;-69
2021/05/16 02:23:09;;;;;;;9.83;2.70;;;9.60;99.90;;;;;;5093765;28;20448;-69
2021/05/16 02:25:35;;;;;;;11.20;1.63;;;9.50;99.90;;;;;;5093384;28;20425;-69
2021/05/16 02:28:01;;;;;;;8.00;1.70;;;9.60;99.90;;;;;;5093459;28;20164;-69
2021/05/16 02:30:27;;;;;;;5.27;1.37;;;9.60;99.90;;;;;;5093657;28;20260;-69
2021/05/16 02:32:52;;;;;;;3.20;1.60;;;9.60;99.90;;;;;;5093301;28;20523;-69
2021/05/16 02:35:18;;;;;;;3.73;1.73;;;9.60;99.90;;;;;;5093274;28;20727;-69
2021/05/16 02:37:43;;;;;;;10.17;1.90;;;9.60;99.90;;;;;;5093421;28;20259;-69
2021/05/16 02:40:10;;;;;;;8.10;1.97;;;9.60;99.90;;;;;;5093540;28;20209;-69
2021/05/16 02:42:36;;;;;;;9.13;1.50;;;9.70;99.90;;;;;;5093034;28;20609;-69
2021/05/16 02:45:02;;;;;;;9.77;1.73;;;9.70;99.90;;;;;;5091813;28;20515;-69
2021/05/16 02:47:28;;;;;;;6.93;1.70;;;9.60;99.90;;;;;;5093357;28;20174;-69
2021/05/16 02:49:53;;;;;;;11.47;1.87;;;9.50;99.90;;;;;;5094531;28;20971;-70
2021/05/16 02:52:19;;;;;;;6.50;2.13;;;9.70;99.90;;;;;;5095067;28;20533;-70
2021/05/16 02:54:44;;;;;;;13.67;1.40;;;9.70;99.90;;;;;;5093716;28;20652;-69
2021/05/16 02:57:10;;;;;;;4.20;1.43;;;9.70;99.90;;;;;;5093030;28;20214;-69
2021/05/16 02:59:36;;;;;;;5.23;2.10;;;9.60;99.90;;;;;;5093012;28;20216;-69
2021/05/16 03:02:02;;;;;;;7.57;2.07;;;9.60;99.90;;;;;;5093016;28;20404;-69
2021/05/16 03:04:28;;;;;;;7.97;1.60;;;9.60;99.90;;;;;;5092966;28;20201;-68
2021/05/16 03:06:53;;;;;;;7.60;1.33;;;9.60;99.90;;;;;;5092974;28;20823;-68
2021/05/16 03:09:19;;;;;;;8.70;3.17;;;9.50;99.90;;;;;;5093115;28;20520;-69
2021/05/16 03:11:44;;;;;;;7.13;1.50;;;9.40;99.90;;;;;;5092936;28;20171;-68
2021/05/16 03:14:10;;;;;;;4.30;1.53;;;9.50;99.90;;;;;;5093017;28;20187;-69
2021/05/16 03:16:36;;;;;;;12.93;1.70;;;9.50;99.90;;;;;;5093015;28;20189;-69
2021/05/16 03:19:02;;;;;;;12.77;1.87;;;9.50;99.90;;;;;;5093217;28;20532;-69
2021/05/16 03:21:28;;;;;;;13.27;2.60;;;9.50;99.90;;;;;;5093121;28;20163;-68
2021/05/16 03:23:54;;;;;;;5.10;2.17;;;9.50;99.90;;;;;;5093073;28;20405;-69
2021/05/16 03:26:19;;;;;;;2.87;1.20;;;9.50;99.90;;;;;;5092922;28;20164;-70
2021/05/16 03:28:45;;;;;;;13.10;1.47;;;9.60;99.90;;;;;;5092791;28;20190;-69
2021/05/16 03:31:10;;;;;;;9.50;1.90;;;9.60;99.90;;;;;;5092729;28;20664;-69
2021/05/16 03:33:36;;;;;;;9.60;1.50;;;9.50;99.90;;;;;;5092680;28;20554;-69
2021/05/16 03:36:01;;;;;;;11.27;2.63;;;9.50;99.90;;;;;;5092613;28;20278;-69
2021/05/16 03:38:27;;;;;;;10.03;2.30;;;9.40;99.90;;;;;;5092791;28;20160;-69
2021/05/16 03:40:52;;;;;;;5.73;2.10;;;9.50;99.90;;;;;;5092994;28;20167;-70
2021/05/16 03:43:20;;;;;;;4.20;1.43;;;9.40;99.90;;;;;;5092623;28;20171;-69
2021/05/16 03:45:46;;;;;;;3.97;1.30;;;9.50;99.90;;;;;;5092518;28;20266;-69
2021/05/16 03:48:12;;;;;;;11.10;1.93;;;9.50;99.90;;;;;;5092859;28;20504;-69
2021/05/16 03:50:37;;;;;;;6.67;1.50;;;9.50;99.90;;;;;;5092799;28;20433;-70
2021/05/16 03:53:03;;;;;;;2.77;1.70;;;9.50;99.90;;;;;;5092802;28;20312;-69
2021/05/16 03:55:28;;;;;;;8.00;1.73;;;9.40;99.90;;;;;;5093347;28;20281;-70
2021/05/16 03:57:54;;;;;;;5.10;1.50;;;9.50;99.90;;;;;;5096937;28;20171;-70
2021/05/16 04:00:20;;;;;;;6.83;1.60;;;9.30;99.90;;;;;;5096856;28;20192;-70
2021/05/16 04:02:46;;;;;;;4.17;1.60;;;9.40;99.90;;;;;;5097499;28;20250;-69
2021/05/16 04:05:13;;;;;;;4.40;1.50;;;9.40;99.90;;;;;;5096426;28;20413;-69
2021/05/16 04:07:38;;;;;;;3.67;1.33;;;9.50;99.90;;;;;;5096135;28;20437;-69
2021/05/16 04:10:06;;;;;;;5.47;2.00;;;9.50;99.90;;;;;;5096521;28;20521;-69
2021/05/16 04:12:31;;;;;;;4.53;1.30;;;9.60;99.90;;;;;;5096385;28;20274;-69
2021/05/16 04:14:57;;;;;;;5.10;1.53;;;9.50;99.90;;;;;;5096032;28;20503;-69
2021/05/16 04:17:23;;;;;;;7.10;2.70;;;9.40;99.90;;;;;;5096214;28;20378;-69
2021/05/16 04:19:48;;;;;;;2.73;1.13;;;9.40;99.90;;;;;;5095999;28;20272;-69
2021/05/16 04:22:14;;;;;;;5.50;1.80;;;9.40;99.90;;;;;;5095949;28;20174;-69
2021/05/16 04:24:39;;;;;;;3.73;1.43;;;9.50;99.90;;;;;;5095888;28;20225;-69
2021/05/16 04:27:05;;;;;;;4.17;1.43;;;9.50;99.90;;;;;;5095854;28;20182;-69
2021/05/16 04:29:31;;;;;;;6.40;1.60;;;9.60;99.90;;;;;;5096348;28;20164;-69
2021/05/16 04:31:56;;;;;;;3.93;1.90;;;9.60;99.90;;;;;;5095962;28;20172;-70
2021/05/16 04:34:22;;;;;;;14.50;2.53;;;9.70;99.90;;;;;;5095670;28;20187;-69
2021/05/16 04:36:47;;;;;;;3.70;1.53;;;9.70;99.90;;;;;;5096014;28;20167;-69
2021/05/16 04:39:13;;;;;;;4.60;1.33;;;9.70;99.90;;;;;;5095693;28;20171;-69
2021/05/16 04:41:39;;;;;;;6.27;1.23;;;9.80;99.90;;;;;;5095601;28;20167;-69
2021/05/16 04:44:05;;;;;;;7.40;1.50;;;9.80;99.90;;;;;;5095430;28;20434;-69
2021/05/16 04:46:31;;;;;;;2.03;1.37;;;9.90;99.90;;;;;;5095871;28;20586;-69
2021/05/16 04:48:56;;;;;;;4.30;2.07;;;10.00;99.90;;;;;;5095300;28;20401;-70
2021/05/16 04:51:22;;;;;;;2.97;1.13;;;10.20;99.90;;;;;;5095350;28;20636;-69
2021/05/16 04:53:48;;;;;;;4.20;2.73;;;10.00;99.90;;;;;;5095087;28;20188;-69
2021/05/16 04:56:13;;;;;;;5.10;1.43;;;10.20;99.90;;;;;;5095287;28;20254;-69
2021/05/16 04:58:39;;;;;;;4.13;1.60;;;10.10;99.90;;;;;;5095180;28;20697;-68
2021/05/16 05:01:05;;;;;;;4.53;1.33;;;10.20;99.90;;;;;;5095067;28;20215;-69
2021/05/16 05:03:32;;;;;;;8.00;2.70;;;10.20;99.90;;;;;;5095103;28;20656;-70
2021/05/16 05:05:57;;;;;;;6.17;1.80;;;10.30;99.90;;;;;;5094913;28;20512;-70
2021/05/16 05:08:25;;;;;;;2.37;1.20;;;10.30;99.90;;;;;;5094867;28;20453;-70
2021/05/16 05:10:51;;;;;;;3.87;1.20;;;10.40;99.90;;;;;;5094959;28;20164;-69
2021/05/16 05:13:16;;;;;;;10.10;2.10;;;10.40;99.90;;;;;;5094827;28;20441;-70
2021/05/16 05:15:42;;;;;;;3.60;1.27;;;10.60;74.20;;;;;;5094811;28;20204;-69
2021/05/16 05:18:08;;;;;;;4.87;1.90;;;10.70;68.70;;;;;;5094686;28;20156;-70
2021/05/16 05:20:33;;;;;;;4.70;1.40;;;10.80;69.70;;;;;;5094747;28;20175;-70
2021/05/16 05:23:00;;;;;;;5.43;1.63;;;10.90;42.50;;;;;;5094591;28;20299;-69
2021/05/16 05:25:29;;;;;;;3.83;1.90;;;10.90;24.40;;;;;;5094665;28;20183;-70
2021/05/16 05:27:55;;;;;;;5.00;1.80;;;10.90;21.40;;;;;;5094702;28;20404;-70
2021/05/16 05:30:24;;;;;;;4.80;1.47;;;11.00;5.60;;;;;;5094376;28;20440;-69
2021/05/16 05:32:50;;;;;;;7.27;2.00;;;11.00;25.80;;;;;;5094509;28;20559;-70
2021/05/16 05:35:16;;;;;;;5.40;2.30;;;11.00;14.40;;;;;;5094492;28;20420;-70
2021/05/16 05:37:43;;;;;;;4.93;2.20;;;11.10;23.80;;;;;;5094202;28;20500;-70
2021/05/16 05:40:09;;;;;;;7.77;2.03;;;11.20;20.90;;;;;;5094231;28;20167;-70
2021/05/16 05:42:35;;;;;;;11.00;1.53;;;11.10;7.60;;;;;;5094159;28;20410;-70
2021/05/16 05:45:01;;;;;;;4.40;1.47;;;11.10;25.50;;;;;;5094313;28;20516;-70
2021/05/16 05:47:27;;;;;;;8.67;2.47;;;11.20;23.70;;;;;;5094233;28;20413;-70
2021/05/16 05:49:53;;;;;;;13.20;2.00;;;11.40;8.10;;;;;;5093933;28;20404;-70
2021/05/16 05:52:19;;;;;;;10.50;1.43;;;11.50;1.00;;;;;;5093898;28;20722;-70
2021/05/16 05:54:44;;;;;;;7.00;1.50;;;11.30;1.00;;;;;;5094121;28;20425;-70
2021/05/16 05:57:10;;;;;;;6.43;1.90;;;11.50;22.60;;;;;;5094142;28;20187;-69
2021/05/16 05:59:36;;;;;;;6.47;1.63;;;11.50;1.60;;;;;;5093890;28;20163;-70
2021/05/16 06:02:03;;;;;;;2.63;1.40;;;11.50;7.30;;;;;;5094203;28;20159;-70
2021/05/16 06:04:29;;;;;;;6.93;1.77;;;11.50;1.00;;;;;;5093955;28;20922;-70
2021/05/16 06:06:55;;;;;;;4.47;1.70;;;11.60;1.00;;;;;;5093828;28;20401;-70
2021/05/16 06:09:21;;;;;;;5.80;1.70;;;11.70;1.00;;;;;;5094505;28;20389;-69
2021/05/16 06:11:46;;;;;;;4.27;1.47;;;11.80;5.30;;;;;;5093908;28;20405;-70
2021/05/16 06:14:12;;;;;;;5.87;1.87;;;11.70;1.00;;;;;;5093609;28;20211;-70
2021/05/16 06:16:38;;;;;;;4.70;1.70;;;11.50;5.40;;;;;;5093818;28;20202;-70
2021/05/16 06:19:03;;;;;;;4.80;1.70;;;11.40;50.40;;;;;;5093070;28;20413;-70
2021/05/16 06:21:29;;;;;;;7.40;2.00;;;11.40;68.30;;;;;;5093510;28;20271;-70
2021/05/16 06:24:10;;;;;;;8.03;1.90;;;11.60;78.20;;;;;;5093249;28;20198;-70
2021/05/16 06:26:42;;;;;;;12.80;2.20;;;11.40;99.90;;;;;;5093687;28;20384;-70
2021/05/16 06:29:12;;;;;;;6.60;2.10;;;11.30;99.90;;;;;;5093606;28;20384;-70
2021/05/16 06:31:38;;;;;;;11.80;2.60;;;11.00;99.90;;;;;;5093512;28;20482;-70
2021/05/16 06:34:04;;;;;;;5.00;1.53;;;10.90;99.90;;;;;;5093878;28;21048;-70
2021/05/16 06:36:30;;;;;;;5.97;2.20;;;10.80;1.00;;;;;;5093362;28;20484;-70
2021/05/16 06:38:56;;;;;;;6.10;2.00;;;10.70;1.00;;;;;;5093540;28;20446;-70
2021/05/16 06:41:23;;;;;;;7.63;1.80;;;10.70;99.90;;;;;;5093347;28;20429;-70
2021/05/16 06:43:49;;;;;;;7.83;2.83;;;10.70;86.40;;;;;;5093380;28;20185;-70
2021/05/16 06:46:15;;;;;;;8.23;2.27;;;10.70;1.00;;;;;;5093164;28;20500;-70
2021/05/16 06:48:41;;;;;;;9.20;2.73;;;10.50;99.90;;;;;;5093041;28;20445;-70
2021/05/16 06:51:07;;;;;;;7.87;2.80;;;10.50;1.00;;;;;;5093417;28;20190;-70
2021/05/16 06:53:33;;;;;;;8.07;2.50;;;10.30;99.90;;;;;;5093045;28;20198;-70
2021/05/16 06:55:59;;;;;;;5.50;2.40;;;10.30;99.90;;;;;;5093024;28;20435;-70
2021/05/16 06:58:25;;;;;;;5.00;2.67;;;10.20;99.90;;;;;;5093135;28;20409;-69
2021/05/16 07:00:50;;;;;;;8.07;2.33;;;10.30;1.00;;;;;;5093315;28;20401;-70
2021/05/16 07:03:16;;;;;;;9.00;2.27;;;10.30;1.00;;;;;;5093256;28;20175;-70
2021/05/16 07:05:42;;;;;;;3.43;1.70;;;10.30;1.00;;;;;;5092867;28;20440;-70
2021/05/16 07:08:07;;;;;;;4.90;1.90;;;10.10;1.00;;;;;;5092867;28;20219;-70
2021/05/16 07:10:33;;;;;;;9.87;2.10;;;10.20;1.00;;;;;;5092781;28;20183;-70
2021/05/16 07:12:59;;;;;;;6.47;1.90;;;10.30;99.90;;;;;;5092607;28;20195;-70
2021/05/16 07:15:25;;;;;;;7.33;1.80;;;10.10;10.00;;;;;;5092909;28;20933;-68
2021/05/16 07:17:51;;;;;;;6.20;1.80;;;10.20;99.90;;;;;;5092616;28;20581;-68
2021/05/16 07:20:17;;;;;;;10.53;1.87;;;10.30;99.90;;;;;;5093849;28;20493;-71
2021/05/16 07:22:42;;;;;;;5.10;2.33;;;10.30;99.90;;;;;;5093774;28;20172;-68
2021/05/16 07:25:08;;;;;;;7.33;2.33;;;10.30;1.00;;;;;;5092832;28;20194;-68
2021/05/16 07:27:34;;;;;;;4.37;2.77;;;10.50;1.00;;;;;;5092667;28;20182;-68
2021/05/16 07:29:59;;;;;;;4.73;1.70;;;10.60;99.90;;;;;;5093729;28;20406;-68
2021/05/16 07:32:25;;;;;;;13.00;2.10;;;10.40;99.90;;;;;;5096792;28;20217;-68
2021/05/16 07:34:51;;;;;;;6.77;1.53;;;10.50;99.90;;;;;;5096761;28;20694;-69
2021/05/16 07:37:16;;;;;;;4.80;1.57;;;10.70;99.90;;;;;;5096557;28;20238;-68
2021/05/16 07:39:42;;;;;;;2.10;0.90;;;10.60;1.00;;;;;;5096984;28;20187;-70
2021/05/16 07:42:08;;;;;;;3.23;1.17;;;10.50;1.00;;;;;;5096693;28;20173;-69
2021/05/16 07:44:33;;;;;;;4.77;1.23;;;10.80;1.00;;;;;;5096809;28;20198;-69
2021/05/16 07:46:59;;;;;;;4.20;1.33;;;10.80;1.00;;;;;;5096492;28;20237;-69
2021/05/16 07:49:24;;;;;;;7.50;1.63;;;10.90;1.00;;;;;;5096500;28;20590;-69
2021/05/16 07:51:50;;;;;;;3.77;1.10;;;11.00;1.00;;;;;;5096361;28;20180;-69
2021/05/16 07:54:16;;;;;;;4.80;1.70;;;11.00;99.90;;;;;;5096382;28;20663;-68
2021/05/16 07:56:41;;;;;;;3.10;1.23;;;11.10;99.90;;;;;;5096428;28;20167;-69
2021/05/16 07:59:07;;;;;;;3.90;2.03;;;11.20;99.90;;;;;;5096597;28;20172;-68
2021/05/16 08:01:32;;;;;;;2.77;0.97;;;11.30;99.90;;;;;;5096878;28;20176;-69
2021/05/16 08:03:58;;;;;;;2.53;1.30;;;11.40;99.90;;;;;;5096369;28;20250;-69
2021/05/16 08:06:24;;;;;;;4.30;1.60;;;11.40;99.90;;;;;;5096250;28;20182;-69
2021/05/16 08:08:49;;;;;;;1.73;0.77;;;11.40;99.90;;;;;;5096018;28;20794;-69
2021/05/16 08:11:15;;;;;;;3.90;1.13;;;11.40;99.90;;;;;;5095984;28;20228;-68
2021/05/16 08:13:41;;;;;;;3.13;1.20;;;11.50;99.90;;;;;;5095844;28;20672;-70
2021/05/16 08:16:06;;;;;;;3.90;0.90;;;11.70;99.90;;;;;;5097794;28;20221;-70
2021/05/16 08:18:32;;;;;;;4.47;1.67;;;11.70;99.90;;;;;;5097973;28;20175;-70
2021/05/16 08:20:57;;;;;;;2.20;0.80;;;11.70;99.90;;;;;;5096438;28;20620;-68
2021/05/16 08:23:23;;;;;;;3.63;1.33;;;11.70;99.90;;;;;;5095953;28;20176;-70
2021/05/16 08:25:49;;;;;;;5.87;1.73;;;11.60;99.90;;;;;;5095831;28;20637;-69
2021/05/16 08:28:17;;;;;;;5.23;1.10;;;11.70;91.90;;;;;;5095964;28;20177;-69
2021/05/16 08:30:43;;;;;;;1.77;0.77;;;11.50;99.90;;;;;;5095618;28;20181;-69
2021/05/16 08:33:09;;;;;;;2.60;0.80;;;11.60;99.90;;;;;;5095826;28;20457;-69
2021/05/16 08:35:35;;;;;;;3.83;0.90;;;11.70;99.90;;;;;;5095519;28;20451;-70
2021/05/16 08:38:01;;;;;;;7.27;1.30;;;11.70;99.90;;;;;;5095550;28;20206;-70
2021/05/16 08:40:26;;;;;;;2.40;1.50;;;12.00;99.90;;;;;;5095086;28;20434;-69
2021/05/16 08:42:52;;;;;;;3.13;1.10;;;11.90;99.90;;;;;;5095392;28;20418;-69
2021/05/16 08:45:18;;;;;;;1.90;0.80;;;11.90;99.90;;;;;;5095583;28;20196;-69
2021/05/16 08:47:45;;;;;;;4.43;1.00;;;12.10;99.90;;;;;;5095265;28;20640;-69
2021/05/16 08:50:17;;;;;;;2.43;0.90;;;12.00;99.90;;;;;;5095244;28;20406;-69
2021/05/16 08:52:43;;;;;;;1.43;0.83;;;12.20;99.90;;;;;;5095438;28;20767;-70
2021/05/16 08:55:11;;;;;;;3.53;0.90;;;12.00;99.90;;;;;;5095065;28;20417;-70
2021/05/16 08:57:37;;;;;;;3.00;1.10;;;12.20;99.90;;;;;;5095260;28;20911;-69
2021/05/16 09:00:11;;;;;;;3.10;0.93;;;12.50;99.90;;;;;;5093854;28;20414;-69
2021/05/16 09:03:09;;;;;;;2.60;0.80;;;12.60;99.90;;;;;;5093787;28;20159;-70
2021/05/16 09:05:44;;;;;;;3.43;0.97;;;12.80;49.80;;;;;;5094904;28;20413;-70
2021/05/16 09:08:12;;;;;;;7.50;1.73;;;12.90;99.90;;;;;;5094777;28;20421;-70
2021/05/16 09:10:40;;;;;;;5.43;1.03;;;12.90;99.90;;;;;;5095170;28;20494;-70
2021/05/16 09:13:17;;;;;;;2.20;0.87;;;12.80;99.90;;;;;;5094956;28;20578;-70
2021/05/16 09:15:57;;;;;;;2.57;0.97;;;13.20;49.90;;;;;;5094929;28;20413;-69
2021/05/16 09:18:36;;;;;;;6.07;1.00;;;13.00;1.00;;;;;;5094993;28;20389;-69
2021/05/16 09:21:22;;;;;;;2.10;0.80;;;13.00;1.00;;;;;;5095479;28;20382;-70
2021/05/16 09:24:03;;;;;;;1.90;0.90;;;13.30;7.80;;;;;;5094834;28;20382;-70
2021/05/16 09:26:32;;;;;;;2.73;0.80;;;12.90;1.00;;;;;;5094961;28;20747;-70
2021/05/16 09:29:19;;;;;;;2.20;1.07;;;12.80;1.00;;;;;;5094756;28;20494;-69
2021/05/16 09:31:45;;;;;;;3.77;1.03;;;12.70;1.00;;;;;;5095110;28;20875;-70
2021/05/16 09:34:11;;;;;;;2.77;0.93;;;13.20;6.10;;;;;;5094446;28;20460;-70
2021/05/16 09:36:40;;;;;;;1.77;0.87;;;13.30;1.00;;;;;;5094764;28;20410;-69
2021/05/16 09:39:23;;;;;;;1.93;0.90;;;13.50;1.00;;;;;;5094757;28;20778;-70
2021/05/16 09:42:06;;;;;;;3.40;1.57;;;13.60;1.00;;;;;;5094294;28;20429;-70
2021/05/16 09:44:36;;;;;;;3.20;1.30;;;13.50;1.00;;;;;;5094543;28;20504;-69
2021/05/16 09:47:14;;;;;;;4.50;1.57;;;13.40;1.00;;;;;;5094509;28;20402;-69
2021/05/16 09:49:42;;;;;;;5.23;1.27;;;13.70;1.00;;;;;;5094276;28;20405;-70
2021/05/16 09:52:11;;;;;;;5.17;1.47;;;14.00;1.00;;;;;;5093746;28;20398;-69
2021/05/16 09:54:51;;;;;;;5.60;1.60;;;14.10;1.00;;;;;;5093769;28;20429;-70
2021/05/16 09:57:17;;;;;;;6.13;1.07;;;14.00;1.00;;;;;;5094067;28;20898;-69
2021/05/16 09:59:44;;;;;;;6.27;1.80;;;13.80;1.00;;;;;;5093913;28;20409;-69
2021/05/16 10:02:10;;;;;;;3.57;1.20;;;14.30;1.00;;;;;;5093912;28;20247;-70
2021/05/16 10:04:36;;;;;;;5.60;2.90;;;14.30;1.00;;;;;;5093800;28;20487;-70
2021/05/16 10:07:02;;;;;;;7.03;1.90;;;14.70;1.00;;;;;;5093654;28;20441;-69
2021/05/16 10:09:27;;;;;;;3.80;1.60;;;15.40;1.00;;;;;;5094175;28;20523;-70
2021/05/16 10:11:53;;;;;;;7.27;1.33;;;15.10;1.00;;;;;;5093654;28;20194;-69
2021/05/16 10:14:28;;;;;;;4.30;1.50;;;14.90;1.00;;;;;;5093601;28;20215;-69
2021/05/16 10:16:54;;;;;;;2.43;1.67;;;15.40;1.00;;;;;;5093609;28;20174;-69
2021/05/16 10:19:22;;;;;;;3.43;1.83;;;15.80;1.00;;;;;;5093912;28;20490;-69
2021/05/16 10:22:06;;;;;;;4.93;1.07;;;15.90;1.00;;;;;;5093863;28;20166;-69
2021/05/16 10:24:42;;;;;;;2.03;0.83;;;16.10;1.00;;;;;;5093384;28;20415;-69
2021/05/16 10:27:24;;;;;;;5.93;1.60;;;16.40;1.00;;;;;;5093774;28;20726;-69
2021/05/16 10:29:51;;;;;;;5.83;2.00;;;15.60;1.00;;;;;;5093739;28;20419;-69
2021/05/16 10:32:33;;;;;;;6.33;2.03;;;15.90;1.00;;;;;;5093288;28;20967;-68
2021/05/16 10:35:03;;;;;;;2.80;1.17;;;16.10;1.00;;;;;;5093335;28;20417;-69
2021/05/16 10:37:39;;;;;;;3.37;1.47;;;16.40;1.00;;;;;;5093319;28;20384;-69
2021/05/16 10:40:24;;;;;;;2.90;1.13;;;15.80;1.00;;;;;;5093844;28;20403;-69
2021/05/16 10:42:59;;;;;;;2.77;1.70;;;15.90;1.00;;;;;;5093488;28;20441;-68
2021/05/16 10:45:33;;;;;;;6.53;1.57;;;15.80;1.00;;;;;;5093016;28;20515;-68
2021/05/16 10:48:11;;;;;;;9.50;3.90;;;15.90;1.00;;;;;;5093196;28;20401;-70
2021/05/16 10:50:42;;;;;;;5.90;1.40;;;15.90;1.00;;;;;;5093262;28;20397;-69
2021/05/16 10:53:18;;;;;;;5.53;1.40;;;16.40;1.00;;;;;;5093196;28;20544;-69
2021/05/16 10:56:09;;;;;;;9.30;2.13;;;16.30;1.00;;;;;;5093270;28;20504;-70
2021/05/16 10:58:44;;;;;;;4.60;1.50;;;16.30;1.00;;;;;;5093302;28;20393;-69
2021/05/16 11:01:32;;;;;;;5.87;1.70;;;16.30;1.00;;;;;;5092962;28;20405;-69
2021/05/16 11:04:00;;;;;;;8.40;3.53;;;16.20;1.00;;;;;;5093143;28;20458;-69
2021/05/16 11:06:38;;;;;;;3.40;1.17;;;16.10;1.00;;;;;;5093092;28;20480;-69
2021/05/16 11:09:04;;;;;;;7.33;1.80;;;16.40;1.00;;;;;;5091605;28;20435;-69
2021/05/16 11:11:39;;;;;;;5.33;1.47;;;16.50;1.00;;;;;;5092904;28;20433;-69
2021/05/16 11:14:17;;;;;;;3.20;1.57;;;17.20;1.00;;;;;;5092948;28;20455;-70
2021/05/16 11:16:54;;;;;;;3.80;1.80;;;17.50;1.00;;;;;;5093004;28;20401;-70
2021/05/16 11:19:22;;;;;;;9.47;2.20;;;17.50;1.00;;;;;;5092856;28;20386;-68
2021/05/16 11:21:47;;;;;;;7.80;2.60;;;17.20;1.00;;;;;;5093151;28;20402;-70
2021/05/16 11:24:14;;;;;;;3.07;1.20;;;17.60;1.00;;;;;;5092571;28;20471;-70
2021/05/16 11:26:40;;;;;;;8.73;3.80;;;17.70;1.00;;;;;;5093157;28;20169;-70
2021/05/16 11:29:06;;;;;;;4.40;2.70;;;17.50;1.00;;;;;;5092701;28;20397;-70
2021/05/16 11:31:34;;;;;;;12.97;2.60;;;17.40;1.00;;;;;;5092862;28;20167;-70
2021/05/16 11:34:02;;;;;;;2.90;0.70;;;18.20;1.00;;;;;;5092583;28;20235;-69
2021/05/16 11:36:36;;;;;;;3.23;1.50;;;18.10;1.00;;;;;;5092575;28;20611;-70
2021/05/16 11:39:05;;;;;;;10.30;1.57;;;18.30;1.00;;;;;;5092955;28;20906;-69
2021/05/16 11:41:45;;;;;;;8.73;3.50;;;17.70;1.00;;;;;;5092619;28;20482;-69
2021/05/16 11:44:13;;;;;;;3.63;1.33;;;17.80;1.00;;;;;;5092680;28;20417;-68
2021/05/16 11:46:44;;;;;;;6.23;1.37;;;17.60;1.00;;;;;;5092952;28;20481;-69
2021/05/16 11:49:24;;;;;;;3.70;1.37;;;17.40;1.00;;;;;;5092742;28;20410;-69
2021/05/16 11:51:49;;;;;;;3.93;1.23;;;17.40;1.00;;;;;;5091214;28;20409;-69
2021/05/16 11:54:16;;;;;;;1.90;1.10;;;18.00;1.00;;;;;;5092379;28;20458;-69
2021/05/16 11:56:45;;;;;;;3.23;1.27;;;17.90;1.00;;;;;;5092776;28;20546;-69
2021/05/16 11:59:12;;;;;;;4.80;1.43;;;17.70;1.00;;;;;;5092559;28;20459;-69
2021/05/16 12:01:40;;;;;;;6.03;1.00;;;18.00;1.00;;;;;;5092402;28;20415;-69
2021/05/16 12:04:11;;;;;;;12.03;3.53;;;17.70;1.00;;;;;;5092256;28;20429;-68
2021/05/16 12:06:52;;;;;;;3.40;1.20;;;17.30;1.00;;;;;;5092319;28;20732;-69
2021/05/16 12:09:19;;;;;;;8.90;1.43;;;17.40;1.00;;;;;;5092304;28;20418;-69
2021/05/16 12:11:51;;;;;;;2.73;1.13;;;17.60;1.00;;;;;;5092244;28;20459;-70
2021/05/16 12:14:18;;;;;;;4.80;2.07;;;17.30;1.00;;;;;;5092159;28;20453;-70
2021/05/16 12:17:01;;;;;;;3.27;1.00;;;17.30;1.00;;;;;;5092968;28;20418;-69
2021/05/16 12:19:32;;;;;;;7.80;1.70;;;17.60;1.00;;;;;;5094416;28;20394;-70
2021/05/16 12:22:06;;;;;;;5.77;1.43;;;17.80;1.00;;;;;;5095913;28;20875;-70
2021/05/16 12:24:37;;;;;;;3.83;1.00;;;17.80;1.00;;;;;;5095669;28;20422;-70
2021/05/16 12:27:07;;;;;;;5.10;1.03;;;17.80;1.00;;;;;;5095974;28;20389;-69
2021/05/16 12:29:33;;;;;;;3.70;0.93;;;17.80;1.00;;;;;;5095990;28;20411;-70
2021/05/16 12:31:59;;;;;;;2.27;0.90;;;17.70;1.00;;;;;;5095655;28;20402;-69
2021/05/16 12:34:27;;;;;;;3.30;1.17;;;17.50;1.00;;;;;;5095381;28;20488;-69
2021/05/16 12:36:58;;;;;;;4.53;0.70;;;17.40;1.00;;;;;;5095488;28;20878;-69
2021/05/16 12:39:43;;;;;;;3.90;1.30;;;17.80;1.00;;;;;;5095778;28;20896;-70
2021/05/16 12:42:40;;;;;;;4.13;2.07;;;17.90;1.00;;;;;;5095582;28;20449;-70
2021/05/16 12:45:20;;;;;;;3.73;1.13;;;19.00;1.00;;;;;;5095339;28;20437;-70
2021/05/16 12:48:05;;;;;;;2.73;1.20;;;19.40;1.00;;;;;;5095238;28;20803;-68
2021/05/16 12:50:41;;;;;;;3.10;0.90;;;19.10;1.00;;;;;;5095295;28;20428;-70
2021/05/16 12:53:31;;;;;;;2.33;0.90;;;18.80;1.00;;;;;;5095070;28;20451;-69
2021/05/16 12:56:16;;;;;;;4.83;1.43;;;19.30;1.00;;;;;;5095128;28;20421;-70
2021/05/16 12:59:06;;;;;;;3.37;1.20;;;19.30;1.00;;;;;;5095849;28;20390;-70